sensor_id;sensor_type;location;lat;lon;timestamp;pressure;altitude;pressure_sealevel;temperature;humidity
70690;BME280;58267;51.156;17.044;2023-11-18T00:00:27;100463.55;;;4.52;53.60
70690;BME280;58267;51.156;17.044;2023-11-18T00:02:52;100474.85;;;4.11;54.73
70690;BME280;58267;51.156;17.044;2023-11-18T00:05:17;100468.82;;;5.01;53.52
70690;BME280;58267;51.156;17.044;2023-11-18T00:07:42;100475.89;;;4.55;54.76
70690;BME280;58267;51.156;17.044;2023-11-18T00:10:08;100478.21;;;4.29;54.82
70690;BME280;58267;51.156;17.044;2023-11-18T00:12:33;100483.42;;;4.32;54.95
70690;BME280;58267;51.156;17.044;2023-11-18T00:14:58;100473.86;;;4.12;55.85
70690;BME280;58267;51.156;17.044;2023-11-18T00:17:23;100470.90;;;3.84;56.29
70690;BME280;58267;51.156;17.044;2023-11-18T00:19:49;100470.75;;;4.02;55.81
70690;BME280;58267;51.156;17.044;2023-11-18T00:22:14;100469.18;;;4.90;53.92
70690;BME280;58267;51.156;17.044;2023-11-18T00:24:39;100468.24;;;4.55;53.67
70690;BME280;58267;51.156;17.044;2023-11-18T00:27:04;100472.03;;;5.53;52.45
70690;BME280;58267;51.156;17.044;2023-11-18T00:29:29;100478.28;;;5.25;53.08
70690;BME280;58267;51.156;17.044;2023-11-18T00:31:55;100483.19;;;4.37;53.55
70690;BME280;58267;51.156;17.044;2023-11-18T00:34:20;100480.39;;;5.41;51.94
70690;BME280;58267;51.156;17.044;2023-11-18T00:36:45;100486.06;;;5.49;52.18
70690;BME280;58267;51.156;17.044;2023-11-18T00:39:11;100487.42;;;5.29;51.88
70690;BME280;58267;51.156;17.044;2023-11-18T00:41:36;100496.18;;;4.95;52.52
70690;BME280;58267;51.156;17.044;2023-11-18T00:44:01;100496.15;;;5.16;52.31
70690;BME280;58267;51.156;17.044;2023-11-18T00:46:27;100499.40;;;4.61;54.41
70690;BME280;58267;51.156;17.044;2023-11-18T00:48:52;100500.62;;;5.23;53.89
70690;BME280;58267;51.156;17.044;2023-11-18T00:51:18;100500.09;;;4.77;53.96
70690;BME280;58267;51.156;17.044;2023-11-18T00:53:43;100500.96;;;5.15;53.86
70690;BME280;58267;51.156;17.044;2023-11-18T00:56:08;100505.82;;;4.96;53.26
70690;BME280;58267;51.156;17.044;2023-11-18T00:58:35;100503.60;;;5.63;52.68
70690;BME280;58267;51.156;17.044;2023-11-18T01:01:00;100506.70;;;5.75;52.04
70690;BME280;58267;51.156;17.044;2023-11-18T01:03:26;100513.49;;;6.01;51.34
70690;BME280;58267;51.156;17.044;2023-11-18T01:05:52;100515.12;;;5.29;53.32
70690;BME280;58267;51.156;17.044;2023-11-18T01:08:21;100523.91;;;5.27;53.67
70690;BME280;58267;51.156;17.044;2023-11-18T01:10:47;100519.93;;;5.59;53.40
70690;BME280;58267;51.156;17.044;2023-11-18T01:13:12;100521.59;;;5.51;52.43
70690;BME280;58267;51.156;17.044;2023-11-18T01:15:38;100524.33;;;4.91;53.81
70690;BME280;58267;51.156;17.044;2023-11-18T01:18:03;100526.70;;;4.90;54.52
70690;BME280;58267;51.156;17.044;2023-11-18T01:20:28;100528.38;;;4.01;56.67
70690;BME280;58267;51.156;17.044;2023-11-18T01:22:53;100536.33;;;4.63;55.64
70690;BME280;58267;51.156;17.044;2023-11-18T01:25:18;100539.62;;;4.38;55.79
70690;BME280;58267;51.156;17.044;2023-11-18T01:27:44;100542.07;;;4.07;56.58
70690;BME280;58267;51.156;17.044;2023-11-18T01:30:10;100549.75;;;4.79;55.82
70690;BME280;58267;51.156;17.044;2023-11-18T01:32:35;100554.79;;;4.69;55.35
70690;BME280;58267;51.156;17.044;2023-11-18T01:35:00;100546.03;;;4.25;56.22
70690;BME280;58267;51.156;17.044;2023-11-18T01:37:25;100550.72;;;4.92;54.49
70690;BME280;58267;51.156;17.044;2023-11-18T01:39:50;100552.28;;;5.23;54.17
70690;BME280;58267;51.156;17.044;2023-11-18T01:42:16;100555.36;;;5.15;53.75
70690;BME280;58267;51.156;17.044;2023-11-18T01:44:41;100559.33;;;5.02;54.14
70690;BME280;58267;51.156;17.044;2023-11-18T01:47:07;100563.08;;;4.80;54.66
70690;BME280;58267;51.156;17.044;2023-11-18T01:49:32;100556.12;;;4.91;54.37
70690;BME280;58267;51.156;17.044;2023-11-18T01:51:56;100556.45;;;5.03;53.03
70690;BME280;58267;51.156;17.044;2023-11-18T01:54:22;100564.28;;;4.01;55.94
70690;BME280;58267;51.156;17.044;2023-11-18T01:56:48;100562.13;;;4.71;54.49
70690;BME280;58267;51.156;17.044;2023-11-18T01:59:13;100567.92;;;4.70;54.34
70690;BME280;58267;51.156;17.044;2023-11-18T02:01:39;100572.33;;;4.16;56.33
70690;BME280;58267;51.156;17.044;2023-11-18T02:04:04;100572.79;;;4.58;54.49
70690;BME280;58267;51.156;17.044;2023-11-18T02:06:29;100573.76;;;5.22;53.33
70690;BME280;58267;51.156;17.044;2023-11-18T02:08:54;100575.54;;;4.83;54.05
70690;BME280;58267;51.156;17.044;2023-11-18T02:11:25;100583.29;;;4.06;55.51
70690;BME280;58267;51.156;17.044;2023-11-18T02:13:48;100584.40;;;4.86;53.97
70690;BME280;58267;51.156;17.044;2023-11-18T02:16:09;100588.58;;;4.88;54.00
70690;BME280;58267;51.156;17.044;2023-11-18T02:18:35;100597.17;;;4.34;54.86
70690;BME280;58267;51.156;17.044;2023-11-18T02:21:00;100600.97;;;3.99;55.72
70690;BME280;58267;51.156;17.044;2023-11-18T02:23:25;100604.95;;;4.36;55.24
70690;BME280;58267;51.156;17.044;2023-11-18T02:25:50;100608.08;;;4.98;53.80
70690;BME280;58267;51.156;17.044;2023-11-18T02:28:15;100615.86;;;4.52;54.93
70690;BME280;58267;51.156;17.044;2023-11-18T02:30:41;100614.85;;;3.91;55.70
70690;BME280;58267;51.156;17.044;2023-11-18T02:33:13;100616.85;;;4.70;54.28
70690;BME280;58267;51.156;17.044;2023-11-18T02:35:34;100621.58;;;3.83;55.54
70690;BME280;58267;51.156;17.044;2023-11-18T02:37:58;100623.48;;;4.30;54.64
70690;BME280;58267;51.156;17.044;2023-11-18T02:40:27;100625.92;;;4.01;55.97
70690;BME280;58267;51.156;17.044;2023-11-18T02:42:49;100633.20;;;3.80;56.15
70690;BME280;58267;51.156;17.044;2023-11-18T02:45:14;100637.03;;;4.38;55.35
70690;BME280;58267;51.156;17.044;2023-11-18T02:47:38;100640.02;;;4.69;54.39
70690;BME280;58267;51.156;17.044;2023-11-18T02:50:04;100641.87;;;4.80;54.00
70690;BME280;58267;51.156;17.044;2023-11-18T02:52:29;100647.42;;;4.77;53.97
70690;BME280;58267;51.156;17.044;2023-11-18T02:54:54;100648.15;;;4.27;55.07
70690;BME280;58267;51.156;17.044;2023-11-18T02:57:19;100661.57;;;4.43;54.79
70690;BME280;58267;51.156;17.044;2023-11-18T02:59:44;100658.80;;;4.21;55.20
70690;BME280;58267;51.156;17.044;2023-11-18T03:02:09;100666.79;;;4.58;54.15
70690;BME280;58267;51.156;17.044;2023-11-18T03:04:35;100665.46;;;3.61;56.24
70690;BME280;58267;51.156;17.044;2023-11-18T03:07:00;100669.31;;;4.31;55.32
70690;BME280;58267;51.156;17.044;2023-11-18T03:09:25;100669.13;;;3.49;56.76
70690;BME280;58267;51.156;17.044;2023-11-18T03:11:51;100671.49;;;3.69;57.21
70690;BME280;58267;51.156;17.044;2023-11-18T03:14:16;100679.12;;;3.98;56.42
70690;BME280;58267;51.156;17.044;2023-11-18T03:16:41;100680.43;;;4.79;54.71
70690;BME280;58267;51.156;17.044;2023-11-18T03:19:07;100682.83;;;3.70;56.61
70690;BME280;58267;51.156;17.044;2023-11-18T03:21:32;100684.23;;;4.32;55.97
70690;BME280;58267;51.156;17.044;2023-11-18T03:23:57;100683.73;;;4.71;55.39
70690;BME280;58267;51.156;17.044;2023-11-18T03:26:22;100680.86;;;5.73;53.09
70690;BME280;58267;51.156;17.044;2023-11-18T03:28:48;100686.51;;;3.56;55.92
70690;BME280;58267;51.156;17.044;2023-11-18T03:31:13;100688.33;;;4.30;54.20
70690;BME280;58267;51.156;17.044;2023-11-18T03:33:38;100693.66;;;4.38;54.26
70690;BME280;58267;51.156;17.044;2023-11-18T03:36:05;100700.23;;;3.24;56.08
70690;BME280;58267;51.156;17.044;2023-11-18T03:38:30;100703.92;;;3.17;56.39
70690;BME280;58267;51.156;17.044;2023-11-18T03:40:55;100705.15;;;2.94;56.33
70690;BME280;58267;51.156;17.044;2023-11-18T03:43:20;100708.14;;;4.04;53.94
70690;BME280;58267;51.156;17.044;2023-11-18T03:45:45;100709.87;;;3.34;55.08
70690;BME280;58267;51.156;17.044;2023-11-18T03:48:10;100708.60;;;4.43;53.73
70690;BME280;58267;51.156;17.044;2023-11-18T03:50:36;100720.03;;;4.24;53.00
70690;BME280;58267;51.156;17.044;2023-11-18T03:53:01;100713.79;;;3.60;54.28
70690;BME280;58267;51.156;17.044;2023-11-18T03:55:26;100720.03;;;4.02;54.02
70690;BME280;58267;51.156;17.044;2023-11-18T03:57:52;100718.58;;;3.82;54.45
70690;BME280;58267;51.156;17.044;2023-11-18T04:00:17;100723.14;;;3.96;53.76
70690;BME280;58267;51.156;17.044;2023-11-18T04:02:42;100724.92;;;4.03;54.09
70690;BME280;58267;51.156;17.044;2023-11-18T04:05:09;100725.22;;;4.67;52.91
70690;BME280;58267;51.156;17.044;2023-11-18T04:07:32;100738.37;;;4.91;52.35
70690;BME280;58267;51.156;17.044;2023-11-18T04:09:58;100733.17;;;4.15;53.67
70690;BME280;58267;51.156;17.044;2023-11-18T04:12:23;100734.31;;;3.37;55.73
70690;BME280;58267;51.156;17.044;2023-11-18T04:14:48;100735.83;;;3.93;54.58
70690;BME280;58267;51.156;17.044;2023-11-18T04:17:13;100743.07;;;4.65;53.41
70690;BME280;58267;51.156;17.044;2023-11-18T04:19:39;100744.54;;;3.36;55.09
70690;BME280;58267;51.156;17.044;2023-11-18T04:22:04;100746.55;;;2.64;57.19
70690;BME280;58267;51.156;17.044;2023-11-18T04:24:29;100744.64;;;3.76;55.41
70690;BME280;58267;51.156;17.044;2023-11-18T04:26:54;100746.35;;;3.79;55.12
70690;BME280;58267;51.156;17.044;2023-11-18T04:29:21;100747.45;;;3.64;55.65
70690;BME280;58267;51.156;17.044;2023-11-18T04:31:46;100746.40;;;3.49;55.84
70690;BME280;58267;51.156;17.044;2023-11-18T04:34:12;100750.06;;;3.71;55.07
70690;BME280;58267;51.156;17.044;2023-11-18T04:36:40;100750.10;;;3.76;54.97
70690;BME280;58267;51.156;17.044;2023-11-18T04:39:04;100750.47;;;3.50;55.94
70690;BME280;58267;51.156;17.044;2023-11-18T04:41:29;100745.62;;;3.66;55.12
70690;BME280;58267;51.156;17.044;2023-11-18T04:43:54;100749.65;;;3.18;56.20
70690;BME280;58267;51.156;17.044;2023-11-18T04:46:20;100753.17;;;3.39;56.42
70690;BME280;58267;51.156;17.044;2023-11-18T04:48:45;100754.37;;;3.83;55.42
70690;BME280;58267;51.156;17.044;2023-11-18T04:51:11;100753.39;;;4.02;54.66
70690;BME280;58267;51.156;17.044;2023-11-18T04:53:37;100756.89;;;3.93;54.75
70690;BME280;58267;51.156;17.044;2023-11-18T04:56:03;100753.86;;;4.29;53.60
70690;BME280;58267;51.156;17.044;2023-11-18T04:58:28;100755.28;;;4.47;53.42
70690;BME280;58267;51.156;17.044;2023-11-18T05:00:53;100748.04;;;4.55;53.03
70690;BME280;58267;51.156;17.044;2023-11-18T05:03:19;100750.72;;;4.45;52.98
70690;BME280;58267;51.156;17.044;2023-11-18T05:05:44;100755.22;;;4.82;52.37
70690;BME280;58267;51.156;17.044;2023-11-18T05:08:18;100760.05;;;4.99;51.58
70690;BME280;58267;51.156;17.044;2023-11-18T05:10:35;100764.80;;;4.28;52.89
70690;BME280;58267;51.156;17.044;2023-11-18T05:13:02;100768.93;;;4.20;53.14
70690;BME280;58267;51.156;17.044;2023-11-18T05:15:27;100770.64;;;4.47;53.03
70690;BME280;58267;51.156;17.044;2023-11-18T05:17:53;100771.36;;;3.98;53.61
70690;BME280;58267;51.156;17.044;2023-11-18T05:20:18;100777.35;;;4.12;53.36
70690;BME280;58267;51.156;17.044;2023-11-18T05:22:44;100783.24;;;4.69;52.53
70690;BME280;58267;51.156;17.044;2023-11-18T05:25:09;100783.76;;;4.73;51.97
70690;BME280;58267;51.156;17.044;2023-11-18T05:27:34;100784.96;;;5.17;50.85
70690;BME280;58267;51.156;17.044;2023-11-18T05:30:00;100791.94;;;4.46;52.33
70690;BME280;58267;51.156;17.044;2023-11-18T05:32:27;100796.21;;;4.36;52.47
70690;BME280;58267;51.156;17.044;2023-11-18T05:34:51;100793.60;;;4.51;52.40
70690;BME280;58267;51.156;17.044;2023-11-18T05:37:17;100790.53;;;3.59;53.96
70690;BME280;58267;51.156;17.044;2023-11-18T05:39:42;100795.38;;;4.04;53.21
70690;BME280;58267;51.156;17.044;2023-11-18T05:42:07;100794.26;;;4.14;53.12
70690;BME280;58267;51.156;17.044;2023-11-18T05:44:33;100802.08;;;3.08;55.13
70690;BME280;58267;51.156;17.044;2023-11-18T05:46:58;100801.68;;;3.67;53.67
70690;BME280;58267;51.156;17.044;2023-11-18T05:49:24;100800.66;;;4.42;52.45
70690;BME280;58267;51.156;17.044;2023-11-18T05:51:49;100804.86;;;3.47;54.30
70690;BME280;58267;51.156;17.044;2023-11-18T05:54:14;100811.53;;;3.25;54.72
70690;BME280;58267;51.156;17.044;2023-11-18T05:56:40;100813.91;;;3.58;54.53
70690;BME280;58267;51.156;17.044;2023-11-18T05:59:06;100812.53;;;3.23;54.33
70690;BME280;58267;51.156;17.044;2023-11-18T06:01:31;100820.56;;;3.13;55.09
70690;BME280;58267;51.156;17.044;2023-11-18T06:03:56;100822.80;;;3.67;53.92
70690;BME280;58267;51.156;17.044;2023-11-18T06:06:22;100820.97;;;4.36;51.92
70690;BME280;58267;51.156;17.044;2023-11-18T06:08:47;100826.68;;;4.30;51.90
70690;BME280;58267;51.156;17.044;2023-11-18T06:11:14;100831.25;;;4.93;50.77
70690;BME280;58267;51.156;17.044;2023-11-18T06:13:39;100831.41;;;5.23;49.60
70690;BME280;58267;51.156;17.044;2023-11-18T06:16:04;100835.66;;;5.25;49.98
70690;BME280;58267;51.156;17.044;2023-11-18T06:18:28;100835.67;;;4.78;50.36
70690;BME280;58267;51.156;17.044;2023-11-18T06:20:54;100832.37;;;4.11;52.00
70690;BME280;58267;51.156;17.044;2023-11-18T06:23:19;100832.74;;;4.18;52.14
70690;BME280;58267;51.156;17.044;2023-11-18T06:25:44;100835.72;;;4.89;50.67
70690;BME280;58267;51.156;17.044;2023-11-18T06:28:10;100835.78;;;4.58;51.53
70690;BME280;58267;51.156;17.044;2023-11-18T06:30:35;100840.76;;;4.62;50.65
70690;BME280;58267;51.156;17.044;2023-11-18T06:33:01;100841.75;;;4.42;51.28
70690;BME280;58267;51.156;17.044;2023-11-18T06:35:26;100843.27;;;4.67;51.38
70690;BME280;58267;51.156;17.044;2023-11-18T06:37:52;100842.49;;;4.68;50.98
70690;BME280;58267;51.156;17.044;2023-11-18T06:40:17;100847.47;;;4.86;50.09
70690;BME280;58267;51.156;17.044;2023-11-18T06:42:43;100853.45;;;5.51;49.65
70690;BME280;58267;51.156;17.044;2023-11-18T06:45:08;100852.96;;;5.74;48.28
70690;BME280;58267;51.156;17.044;2023-11-18T06:47:34;100857.67;;;5.58;48.46
70690;BME280;58267;51.156;17.044;2023-11-18T06:49:59;100862.06;;;5.64;48.91
70690;BME280;58267;51.156;17.044;2023-11-18T06:52:24;100869.08;;;5.72;48.23
70690;BME280;58267;51.156;17.044;2023-11-18T06:54:50;100872.19;;;5.42;48.73
70690;BME280;58267;51.156;17.044;2023-11-18T06:57:15;100874.43;;;5.53;48.58
70690;BME280;58267;51.156;17.044;2023-11-18T06:59:40;100876.51;;;4.69;50.05
70690;BME280;58267;51.156;17.044;2023-11-18T07:02:06;100875.91;;;3.76;51.91
70690;BME280;58267;51.156;17.044;2023-11-18T07:04:32;100881.40;;;4.95;50.13
70690;BME280;58267;51.156;17.044;2023-11-18T07:06:57;100881.63;;;3.94;52.14
70690;BME280;58267;51.156;17.044;2023-11-18T07:09:22;100884.43;;;4.02;52.30
70690;BME280;58267;51.156;17.044;2023-11-18T07:11:47;100893.18;;;4.28;52.13
70690;BME280;58267;51.156;17.044;2023-11-18T07:14:12;100888.10;;;4.97;50.58
70690;BME280;58267;51.156;17.044;2023-11-18T07:16:38;100888.71;;;5.21;50.37
70690;BME280;58267;51.156;17.044;2023-11-18T07:19:03;100893.33;;;5.28;50.17
70690;BME280;58267;51.156;17.044;2023-11-18T07:21:28;100889.32;;;5.06;49.71
70690;BME280;58267;51.156;17.044;2023-11-18T07:23:54;100892.11;;;4.99;49.86
70690;BME280;58267;51.156;17.044;2023-11-18T07:26:19;100892.25;;;4.78;50.20
70690;BME280;58267;51.156;17.044;2023-11-18T07:28:44;100896.67;;;4.53;50.74
70690;BME280;58267;51.156;17.044;2023-11-18T07:31:10;100896.74;;;4.82;50.78
70690;BME280;58267;51.156;17.044;2023-11-18T07:33:35;100899.02;;;4.57;51.12
70690;BME280;58267;51.156;17.044;2023-11-18T07:36:00;100903.97;;;4.81;50.80
70690;BME280;58267;51.156;17.044;2023-11-18T07:38:26;100903.43;;;5.18;50.19
70690;BME280;58267;51.156;17.044;2023-11-18T07:40:52;100910.47;;;5.34;49.17
70690;BME280;58267;51.156;17.044;2023-11-18T07:43:17;100912.95;;;4.84;50.56
70690;BME280;58267;51.156;17.044;2023-11-18T07:45:43;100917.12;;;5.10;50.03
70690;BME280;58267;51.156;17.044;2023-11-18T07:48:09;100916.15;;;5.79;48.51
70690;BME280;58267;51.156;17.044;2023-11-18T07:50:34;100915.21;;;4.83;49.16
70690;BME280;58267;51.156;17.044;2023-11-18T07:53:00;100916.45;;;4.88;49.76
70690;BME280;58267;51.156;17.044;2023-11-18T07:55:25;100914.62;;;5.43;49.51
70690;BME280;58267;51.156;17.044;2023-11-18T07:57:50;100914.03;;;5.47;49.19
70690;BME280;58267;51.156;17.044;2023-11-18T08:00:16;100915.98;;;4.88;50.12
70690;BME280;58267;51.156;17.044;2023-11-18T08:02:41;100918.86;;;5.63;48.60
70690;BME280;58267;51.156;17.044;2023-11-18T08:05:07;100917.50;;;6.36;47.58
70690;BME280;58267;51.156;17.044;2023-11-18T08:07:32;100923.37;;;5.81;48.34
70690;BME280;58267;51.156;17.044;2023-11-18T08:09:57;100922.14;;;3.46;52.65
70690;BME280;58267;51.156;17.044;2023-11-18T08:12:23;100921.44;;;5.20;50.08
70690;BME280;58267;51.156;17.044;2023-11-18T08:14:48;100926.55;;;4.47;51.21
70690;BME280;58267;51.156;17.044;2023-11-18T08:17:14;100927.90;;;5.48;49.46
70690;BME280;58267;51.156;17.044;2023-11-18T08:19:40;100931.99;;;5.99;48.23
70690;BME280;58267;51.156;17.044;2023-11-18T08:22:05;100937.59;;;5.68;49.49
70690;BME280;58267;51.156;17.044;2023-11-18T08:24:31;100937.08;;;5.69;49.54
70690;BME280;58267;51.156;17.044;2023-11-18T08:26:57;100934.82;;;5.50;48.99
70690;BME280;58267;51.156;17.044;2023-11-18T08:29:23;100938.87;;;5.78;48.91
70690;BME280;58267;51.156;17.044;2023-11-18T08:31:48;100938.11;;;5.65;48.84
70690;BME280;58267;51.156;17.044;2023-11-18T08:34:13;100936.26;;;5.42;49.76
70690;BME280;58267;51.156;17.044;2023-11-18T08:36:39;100938.37;;;5.23;49.75
70690;BME280;58267;51.156;17.044;2023-11-18T08:39:04;100938.65;;;4.84;49.75
70690;BME280;58267;51.156;17.044;2023-11-18T08:41:29;100946.06;;;5.19;49.50
70690;BME280;58267;51.156;17.044;2023-11-18T08:43:55;100952.26;;;5.62;48.98
70690;BME280;58267;51.156;17.044;2023-11-18T08:46:20;100954.08;;;6.26;48.08
70690;BME280;58267;51.156;17.044;2023-11-18T08:48:45;100957.85;;;5.62;49.63
70690;BME280;58267;51.156;17.044;2023-11-18T08:51:10;100954.79;;;5.10;50.30
70690;BME280;58267;51.156;17.044;2023-11-18T08:53:36;100954.63;;;4.76;51.03
70690;BME280;58267;51.156;17.044;2023-11-18T08:56:02;100959.48;;;4.58;51.63
70690;BME280;58267;51.156;17.044;2023-11-18T08:58:27;100965.33;;;4.78;51.49
70690;BME280;58267;51.156;17.044;2023-11-18T09:00:53;100970.38;;;4.78;51.80
70690;BME280;58267;51.156;17.044;2023-11-18T09:03:19;100981.70;;;4.03;53.14
70690;BME280;58267;51.156;17.044;2023-11-18T09:05:45;100988.45;;;5.32;51.00
70690;BME280;58267;51.156;17.044;2023-11-18T09:08:09;100993.47;;;5.60;50.40
70690;BME280;58267;51.156;17.044;2023-11-18T09:10:34;100994.52;;;5.22;50.53
70690;BME280;58267;51.156;17.044;2023-11-18T09:12:59;100998.76;;;5.46;51.02
70690;BME280;58267;51.156;17.044;2023-11-18T09:15:25;101006.57;;;6.32;48.39
70690;BME280;58267;51.156;17.044;2023-11-18T09:17:50;101009.67;;;4.77;50.63
70690;BME280;58267;51.156;17.044;2023-11-18T09:20:16;101008.73;;;5.36;49.80
70690;BME280;58267;51.156;17.044;2023-11-18T09:22:41;101005.56;;;5.54;49.44
70690;BME280;58267;51.156;17.044;2023-11-18T09:25:07;101007.19;;;5.53;50.65
70690;BME280;58267;51.156;17.044;2023-11-18T09:27:32;101012.67;;;4.08;53.06
70690;BME280;58267;51.156;17.044;2023-11-18T09:29:58;101011.09;;;4.75;51.02
70690;BME280;58267;51.156;17.044;2023-11-18T09:32:24;101011.47;;;4.99;51.40
70690;BME280;58267;51.156;17.044;2023-11-18T09:34:48;101012.94;;;4.59;52.10
70690;BME280;58267;51.156;17.044;2023-11-18T09:37:14;101013.15;;;4.79;51.75
70690;BME280;58267;51.156;17.044;2023-11-18T09:39:40;101014.36;;;5.60;50.24
70690;BME280;58267;51.156;17.044;2023-11-18T09:42:06;101009.58;;;5.48;49.68
70690;BME280;58267;51.156;17.044;2023-11-18T09:44:31;101012.04;;;5.41;49.59
70690;BME280;58267;51.156;17.044;2023-11-18T09:46:57;101011.58;;;5.71;49.35
70690;BME280;58267;51.156;17.044;2023-11-18T09:49:25;101009.63;;;5.13;49.74
70690;BME280;58267;51.156;17.044;2023-11-18T09:51:47;101016.76;;;5.00;50.66
70690;BME280;58267;51.156;17.044;2023-11-18T09:54:18;101013.89;;;4.97;50.83
70690;BME280;58267;51.156;17.044;2023-11-18T09:56:41;101017.32;;;5.42;49.83
70690;BME280;58267;51.156;17.044;2023-11-18T09:59:10;101014.47;;;5.55;49.20
70690;BME280;58267;51.156;17.044;2023-11-18T10:01:30;101011.92;;;5.67;49.22
70690;BME280;58267;51.156;17.044;2023-11-18T10:03:55;101011.55;;;5.63;48.58
70690;BME280;58267;51.156;17.044;2023-11-18T10:06:20;101017.42;;;6.38;47.64
70690;BME280;58267;51.156;17.044;2023-11-18T10:08:46;101020.00;;;5.97;47.63
70690;BME280;58267;51.156;17.044;2023-11-18T10:11:12;101027.88;;;5.40;48.98
70690;BME280;58267;51.156;17.044;2023-11-18T10:13:37;101033.63;;;5.21;48.68
70690;BME280;58267;51.156;17.044;2023-11-18T10:16:03;101035.97;;;5.95;47.71
70690;BME280;58267;51.156;17.044;2023-11-18T10:18:27;101041.14;;;6.01;47.22
70690;BME280;58267;51.156;17.044;2023-11-18T10:20:53;101040.15;;;4.86;49.00
70690;BME280;58267;51.156;17.044;2023-11-18T10:23:20;101041.19;;;6.13;47.67
70690;BME280;58267;51.156;17.044;2023-11-18T10:25:51;101048.37;;;5.11;47.73
70690;BME280;58267;51.156;17.044;2023-11-18T10:30:43;101055.08;;;6.70;45.69
70690;BME280;58267;51.156;17.044;2023-11-18T10:33:00;101051.78;;;5.87;46.88
70690;BME280;58267;51.156;17.044;2023-11-18T10:35:25;101059.04;;;6.64;45.71
70690;BME280;58267;51.156;17.044;2023-11-18T10:37:51;101051.31;;;6.32;46.37
70690;BME280;58267;51.156;17.044;2023-11-18T10:40:15;101057.44;;;6.43;46.10
70690;BME280;58267;51.156;17.044;2023-11-18T10:42:41;101056.37;;;5.82;47.00
70690;BME280;58267;51.156;17.044;2023-11-18T10:45:07;101060.64;;;6.54;46.86
70690;BME280;58267;51.156;17.044;2023-11-18T10:47:33;101059.79;;;6.48;46.73
70690;BME280;58267;51.156;17.044;2023-11-18T10:49:59;101063.71;;;6.36;46.18
70690;BME280;58267;51.156;17.044;2023-11-18T10:52:24;101067.21;;;5.82;47.35
70690;BME280;58267;51.156;17.044;2023-11-18T10:54:53;101068.08;;;6.13;46.82
70690;BME280;58267;51.156;17.044;2023-11-18T10:57:14;101065.98;;;6.16;46.84
70690;BME280;58267;51.156;17.044;2023-11-18T11:06:57;101065.30;;;6.86;45.46
70690;BME280;58267;51.156;17.044;2023-11-18T11:09:23;101070.62;;;6.85;45.12
70690;BME280;58267;51.156;17.044;2023-11-18T11:11:50;101070.19;;;6.07;46.79
70690;BME280;58267;51.156;17.044;2023-11-18T11:14:12;101069.49;;;6.24;46.46
70690;BME280;58267;51.156;17.044;2023-11-18T11:16:40;101072.07;;;6.01;46.95
70690;BME280;58267;51.156;17.044;2023-11-18T11:19:04;101070.25;;;5.87;46.80
70690;BME280;58267;51.156;17.044;2023-11-18T11:21:30;101081.83;;;6.20;46.75
70690;BME280;58267;51.156;17.044;2023-11-18T11:24:00;101077.84;;;6.47;46.23
70690;BME280;58267;51.156;17.044;2023-11-18T11:26:30;101078.65;;;6.70;45.19
70690;BME280;58267;51.156;17.044;2023-11-18T11:28:52;101079.02;;;6.85;45.12
70690;BME280;58267;51.156;17.044;2023-11-18T11:31:16;101079.03;;;6.73;45.22
70690;BME280;58267;51.156;17.044;2023-11-18T11:33:41;101083.15;;;5.70;45.94
70690;BME280;58267;51.156;17.044;2023-11-18T11:36:03;101089.70;;;5.61;47.48
70690;BME280;58267;51.156;17.044;2023-11-18T11:38:28;101094.05;;;5.16;48.86
70690;BME280;58267;51.156;17.044;2023-11-18T11:40:54;101088.33;;;5.90;48.10
70690;BME280;58267;51.156;17.044;2023-11-18T11:43:19;101090.24;;;6.93;46.45
70690;BME280;58267;51.156;17.044;2023-11-18T11:45:45;101084.09;;;7.51;45.26
70690;BME280;58267;51.156;17.044;2023-11-18T11:48:10;101088.73;;;7.58;44.92
70690;BME280;58267;51.156;17.044;2023-11-18T11:50:38;101090.56;;;7.95;43.90
70690;BME280;58267;51.156;17.044;2023-11-18T11:53:05;101091.26;;;7.64;44.12
70690;BME280;58267;51.156;17.044;2023-11-18T11:55:33;101098.62;;;7.98;43.74
70690;BME280;58267;51.156;17.044;2023-11-18T11:57:52;101098.02;;;7.70;44.39
70690;BME280;58267;51.156;17.044;2023-11-18T12:00:18;101099.98;;;7.46;44.45
70690;BME280;58267;51.156;17.044;2023-11-18T12:02:48;101096.84;;;7.78;43.95
70690;BME280;58267;51.156;17.044;2023-11-18T12:05:08;101095.73;;;7.50;44.80
70690;BME280;58267;51.156;17.044;2023-11-18T12:07:34;101088.47;;;8.06;44.69
70690;BME280;58267;51.156;17.044;2023-11-18T12:09:59;101093.57;;;7.62;44.98
70690;BME280;58267;51.156;17.044;2023-11-18T12:12:25;101099.58;;;6.62;46.78
70690;BME280;58267;51.156;17.044;2023-11-18T12:14:51;101099.06;;;5.74;48.19
70690;BME280;58267;51.156;17.044;2023-11-18T12:17:14;101097.82;;;6.21;48.29
70690;BME280;58267;51.156;17.044;2023-11-18T12:19:41;101102.28;;;6.68;47.57
70690;BME280;58267;51.156;17.044;2023-11-18T12:22:05;101100.64;;;6.28;47.15
70690;BME280;58267;51.156;17.044;2023-11-18T12:24:31;101101.43;;;6.87;46.21
70690;BME280;58267;51.156;17.044;2023-11-18T12:26:56;101102.04;;;7.62;44.24
70690;BME280;58267;51.156;17.044;2023-11-18T12:31:47;101103.67;;;7.73;43.91
70690;BME280;58267;51.156;17.044;2023-11-18T12:34:12;101099.59;;;7.96;44.12
70690;BME280;58267;51.156;17.044;2023-11-18T12:41:34;101098.92;;;7.86;44.45
70690;BME280;58267;51.156;17.044;2023-11-18T12:44:05;101103.56;;;8.30;42.45
70690;BME280;58267;51.156;17.044;2023-11-18T12:48:44;101108.07;;;8.91;41.02
70690;BME280;58267;51.156;17.044;2023-11-18T12:51:10;101106.31;;;8.85;40.62
70690;BME280;58267;51.156;17.044;2023-11-18T12:53:35;101106.36;;;8.90;40.28
70690;BME280;58267;51.156;17.044;2023-11-18T12:56:00;101111.11;;;8.74;40.62
70690;BME280;58267;51.156;17.044;2023-11-18T12:58:25;101114.20;;;9.35;40.08